Time;durP1;ratioP1;P1;durP2;ratioP2;P2;SDS_P1;SDS_P2;PMS_P1;PMS_P2;Temp;Humidity;BMP_temperature;BMP_pressure;BME280_temperature;BME280_humidity;BME280_pressure;Samples;Min_cycle;Max_cycle;Signal;HPM_P1;HPM_P2
2022/07/31 00:05:41;;;;;;;1.70;1.60;;;;;;;14.75;90.53;98900.06;431688;1271;151142;-60
2022/07/31 00:15:47;;;;;;;1.50;1.40;;;;;;;14.74;90.63;98890.31;431529;1270;141194;-60
2022/07/31 00:25:53;;;;;;;1.00;1.00;;;;;;;14.76;90.77;98885.68;431455;1270;143069;-60
2022/07/31 00:35:59;;;;;;;1.20;1.20;;;;;;;14.74;91.03;98891.50;434926;1270;141798;-59
2022/07/31 00:46:05;;;;;;;1.70;1.60;;;;;;;14.74;91.04;98888.52;431412;1270;142339;-58
2022/07/31 00:56:19;;;;;;;1.70;1.40;;;;;;;14.70;91.17;98889.23;430513;1273;184243;-58
2022/07/31 01:06:25;;;;;;;1.50;1.40;;;;;;;14.63;91.12;98895.64;432349;1271;142492;-59
2022/07/31 01:16:36;;;;;;;1.70;1.60;;;;;;;14.59;91.51;98877.48;430099;1272;143273;-59
2022/07/31 01:26:49;;;;;;;1.40;1.30;;;;;;;14.56;91.59;98865.61;431915;1270;142881;-59
2022/07/31 01:37:01;;;;;;;1.80;1.10;;;;;;;14.53;91.88;98866.06;431809;1271;142174;-59
2022/07/31 01:47:09;;;;;;;1.80;1.60;;;;;;;14.50;91.88;98860.77;431315;1270;147515;-57
2022/07/31 01:57:16;;;;;;;1.50;1.40;;;;;;;14.43;92.47;98852.23;431394;1270;144359;-59
2022/07/31 02:07:24;;;;;;;1.90;1.10;;;;;;;14.36;93.23;98844.02;431496;1270;142452;-57
2022/07/31 02:17:31;;;;;;;1.60;1.20;;;;;;;14.33;93.41;98834.16;429936;1271;143432;-58
2022/07/31 02:27:39;;;;;;;1.80;1.20;;;;;;;14.31;93.72;98835.37;432560;1271;142214;-59
2022/07/31 02:38:04;;;;;;;2.80;1.20;;;;;;;14.33;93.98;98817.42;429955;1270;146931;-59
2022/07/31 02:48:27;;;;;;;1.20;0.90;;;;;;;14.35;93.97;98824.81;431714;1271;144031;-59
2022/07/31 02:58:33;;;;;;;1.40;1.30;;;;;;;14.33;94.22;98818.77;430991;1271;143342;-59
2022/07/31 03:08:39;;;;;;;2.50;0.70;;;;;;;14.33;94.13;98821.14;431985;1270;142467;-59
2022/07/31 03:18:45;;;;;;;1.30;1.20;;;;;;;14.30;94.26;98822.23;431421;1271;142373;-60
2022/07/31 03:28:51;;;;;;;1.00;0.90;;;;;;;14.26;94.38;98813.45;430490;1271;146047;-61
2022/07/31 03:38:57;;;;;;;2.30;2.20;;;;;;;14.17;94.64;98807.91;430264;1271;142705;-59
2022/07/31 03:49:04;;;;;;;2.40;2.10;;;;;;;14.12;94.59;98807.33;433438;1271;143152;-58
2022/07/31 03:59:10;;;;;;;2.10;1.80;;;;;;;14.12;94.70;98807.70;432716;1271;142231;-58
2022/07/31 04:09:19;;;;;;;1.70;1.60;;;;;;;14.12;94.66;98814.91;432092;1271;141860;-59
2022/07/31 04:19:24;;;;;;;1.00;1.00;;;;;;;14.12;94.33;98816.77;433494;1271;142400;-59
2022/07/31 04:29:30;;;;;;;0.80;0.80;;;;;;;14.12;94.22;98811.38;431199;1270;142258;-59
2022/07/31 04:39:36;;;;;;;0.80;0.70;;;;;;;14.14;94.02;98811.30;444247;1271;141574;-60
2022/07/31 04:49:43;;;;;;;1.10;0.60;;;;;;;14.20;94.22;98810.32;446946;1270;142837;-60
2022/07/31 04:59:48;;;;;;;0.60;0.60;;;;;;;14.22;93.95;98815.05;442449;1271;147627;-60
2022/07/31 05:10:05;;;;;;;0.60;0.60;;;;;;;14.23;93.85;98814.66;447840;1270;144360;-60
2022/07/31 05:20:12;;;;;;;0.60;0.60;;;;;;;14.26;93.67;98812.42;447055;1270;142424;-60
2022/07/31 05:30:18;;;;;;;1.60;0.70;;;;;;;14.27;93.73;98814.02;447890;1270;144092;-59
2022/07/31 05:40:35;;;;;;;0.60;0.60;;;;;;;14.26;93.58;98819.20;447386;1271;142166;-60
2022/07/31 05:50:43;;;;;;;1.10;0.70;;;;;;;14.24;93.53;98823.88;434547;1271;197916;-58
2022/07/31 06:00:50;;;;;;;0.70;0.60;;;;;;;14.19;93.65;98824.30;443410;1270;141749;-59
2022/07/31 06:10:56;;;;;;;0.80;0.80;;;;;;;14.12;93.97;98827.23;446379;1270;142921;-59
2022/07/31 06:21:01;;;;;;;1.30;1.30;;;;;;;14.12;93.84;98839.66;447739;1270;142771;-60
2022/07/31 06:31:07;;;;;;;0.60;0.60;;;;;;;14.22;93.67;98841.30;447867;1270;143118;-60
2022/07/31 06:41:43;;;;;;;1.10;1.00;;;;;;;14.29;93.25;98843.80;438407;1270;143751;-59
2022/07/31 06:51:41;;;;;;;0.90;0.90;;;;;;;14.38;93.20;98849.30;438719;1270;146180;-59
2022/07/31 07:01:47;;;;;;;1.10;1.00;;;;;;;14.39;92.89;98849.59;447078;1269;142700;-60
2022/07/31 07:11:53;;;;;;;0.80;0.80;;;;;;;14.39;92.73;98848.48;447229;1269;142973;-60
2022/07/31 07:21:59;;;;;;;0.90;0.60;;;;;;;14.52;92.45;98849.70;444230;1270;142174;-58
2022/07/31 07:32:06;;;;;;;1.50;0.80;;;;;;;14.69;92.27;98856.36;441150;1270;143468;-59
2022/07/31 07:42:12;;;;;;;0.50;0.50;;;;;;;14.80;91.52;98860.53;435060;1270;141641;-59
2022/07/31 07:52:18;;;;;;;0.70;0.70;;;;;;;15.02;91.20;98860.37;430776;1270;143949;-58
2022/07/31 08:02:24;;;;;;;0.80;0.50;;;;;;;15.37;90.59;98862.58;446728;1270;147276;-59
2022/07/31 08:12:29;;;;;;;0.60;0.40;;;;;;;15.59;89.54;98864.65;437044;1270;143369;-59
2022/07/31 08:22:35;;;;;;;0.30;0.30;;;;;;;15.55;88.74;98872.80;430386;1270;142549;-60
2022/07/31 08:32:41;;;;;;;0.30;0.30;;;;;;;15.56;88.55;98883.14;441427;1270;142771;-59
2022/07/31 08:42:48;;;;;;;1.30;0.30;;;;;;;15.53;88.24;98880.82;447774;1271;142779;-60
2022/07/31 08:52:54;;;;;;;0.50;0.50;;;;;;;15.52;87.90;98894.43;444050;1268;144163;-59
2022/07/31 09:03:00;;;;;;;0.40;0.40;;;;;;;15.50;87.59;98892.03;434539;1270;142443;-60
2022/07/31 09:13:15;;;;;;;0.40;0.40;;;;;;;15.36;87.51;98891.70;439490;1271;143999;-59
2022/07/31 09:23:21;;;;;;;0.70;0.50;;;;;;;15.40;87.37;98892.24;446721;1270;144404;-60
2022/07/31 09:33:29;;;;;;;0.70;0.70;;;;;;;15.42;87.12;98897.88;444977;1267;141680;-59
2022/07/31 09:43:35;;;;;;;0.90;0.80;;;;;;;15.38;87.10;98905.52;446785;1273;142933;-59
2022/07/31 09:53:58;;;;;;;0.70;0.70;;;;;;;15.31;87.08;98914.76;437350;1271;211177;-61
2022/07/31 10:04:06;;;;;;;1.00;0.80;;;;;;;15.23;87.30;98914.52;441864;1273;142442;-61
2022/07/31 10:14:16;;;;;;;1.00;0.90;;;;;;;15.32;87.48;98914.37;430746;1270;144223;-59
2022/07/31 10:24:27;;;;;;;1.10;0.80;;;;;;;15.56;87.49;98920.59;431160;1272;143580;-59
2022/07/31 10:34:34;;;;;;;0.80;0.80;;;;;;;15.84;87.25;98912.20;431154;1271;143016;-59
2022/07/31 10:44:50;;;;;;;0.70;0.70;;;;;;;16.01;86.93;98920.36;431185;1270;147809;-58
2022/07/31 10:54:57;;;;;;;0.90;0.90;;;;;;;15.88;86.80;98926.17;431603;1272;142544;-57
2022/07/31 11:05:14;;;;;;;2.70;0.50;;;;;;;16.01;86.91;98936.37;430518;1270;143826;-59
2022/07/31 11:15:23;;;;;;;0.80;0.80;;;;;;;16.07;86.72;98943.58;431479;1270;141897;-60
2022/07/31 11:25:30;;;;;;;1.00;0.60;;;;;;;16.16;86.29;98952.29;431036;1271;272016;-61
2022/07/31 11:35:37;;;;;;;0.70;0.70;;;;;;;16.01;86.17;98959.48;431447;1270;146511;-62
2022/07/31 11:45:51;;;;;;;0.30;0.30;;;;;;;15.95;86.55;98958.30;432005;1270;146153;-61
2022/07/31 11:55:59;;;;;;;0.60;0.60;;;;;;;16.27;86.35;98965.88;431695;1270;161233;-61
2022/07/31 12:06:06;;;;;;;1.30;0.80;;;;;;;16.36;86.15;98963.05;431783;1270;143196;-60
2022/07/31 12:16:14;;;;;;;0.20;0.20;;;;;;;16.52;85.82;98961.14;431672;1273;142692;-61
2022/07/31 12:26:28;;;;;;;0.30;0.30;;;;;;;16.53;85.37;98971.42;430830;1270;143508;-58
2022/07/31 12:36:34;;;;;;;0.20;0.20;;;;;;;16.24;85.48;98976.37;432958;1270;146238;-59
2022/07/31 12:46:40;;;;;;;0.30;0.30;;;;;;;16.11;85.85;98977.63;430877;1270;143105;-60
2022/07/31 12:56:47;;;;;;;0.40;0.40;;;;;;;16.18;85.92;98979.23;431605;1270;142508;-60
2022/07/31 13:06:53;;;;;;;0.50;0.50;;;;;;;16.22;85.75;98988.10;431852;1269;142793;-61
2022/07/31 13:16:59;;;;;;;0.20;0.20;;;;;;;16.09;85.81;98992.48;431006;1270;143253;-59
2022/07/31 13:27:04;;;;;;;0.70;0.40;;;;;;;15.84;85.97;98997.19;431542;1270;141868;-58
2022/07/31 13:37:11;;;;;;;0.50;0.30;;;;;;;15.67;86.48;98999.55;431537;1270;141592;-60
2022/07/31 13:47:17;;;;;;;0.50;0.50;;;;;;;15.73;86.58;99009.10;431103;1270;143430;-62
2022/07/31 13:57:22;;;;;;;0.90;0.80;;;;;;;15.64;86.74;99017.70;431102;1271;187046;-62
2022/07/31 14:07:32;;;;;;;0.40;0.40;;;;;;;15.65;86.84;99011.95;432173;1270;142380;-60
2022/07/31 14:17:57;;;;;;;0.70;0.70;;;;;;;15.60;86.94;99018.07;431415;1270;141602;-61
2022/07/31 14:28:03;;;;;;;0.40;0.40;;;;;;;15.53;86.86;99024.21;431582;1270;146763;-61
2022/07/31 14:38:09;;;;;;;0.70;0.70;;;;;;;15.44;86.87;99022.18;430867;1270;142353;-63
2022/07/31 14:48:14;;;;;;;0.30;0.30;;;;;;;15.38;87.00;99023.95;431779;1270;197989;-61
2022/07/31 14:58:21;;;;;;;0.60;0.60;;;;;;;15.44;87.03;99034.39;431740;1270;143036;-61
2022/07/31 15:08:27;;;;;;;0.40;0.40;;;;;;;15.40;87.09;99047.95;431778;1270;142490;-59
2022/07/31 15:18:33;;;;;;;1.50;0.40;;;;;;;15.35;87.51;99057.41;431883;1270;142326;-60
2022/07/31 15:28:38;;;;;;;0.70;0.70;;;;;;;15.48;87.61;99062.09;431368;1270;142756;-59
2022/07/31 15:38:44;;;;;;;0.40;0.40;;;;;;;15.37;87.74;99064.28;431955;1270;144819;-60
2022/07/31 15:48:50;;;;;;;0.60;0.60;;;;;;;15.30;88.12;99075.20;432188;1270;200891;-60
2022/07/31 15:58:58;;;;;;;0.80;0.50;;;;;;;15.22;88.49;99076.98;430383;1270;166831;-58
2022/07/31 16:09:04;;;;;;;0.60;0.60;;;;;;;15.18;88.90;99075.91;433148;1270;143270;-60
2022/07/31 16:19:10;;;;;;;1.00;0.70;;;;;;;15.09;89.21;99084.63;431173;1270;143103;-61
2022/07/31 16:29:21;;;;;;;0.70;0.70;;;;;;;15.05;89.75;99092.26;431206;1270;142510;-59
2022/07/31 16:39:47;;;;;;;0.90;0.90;;;;;;;15.08;89.85;99093.04;431662;1270;142055;-59
2022/07/31 16:49:53;;;;;;;1.20;0.70;;;;;;;15.07;90.05;99096.08;430555;1270;142560;-59
2022/07/31 16:59:59;;;;;;;1.00;1.00;;;;;;;15.06;90.26;99102.14;431745;1270;142658;-60
2022/07/31 17:10:06;;;;;;;1.30;1.20;;;;;;;15.08;90.46;99110.30;431891;1270;142072;-60
2022/07/31 17:20:12;;;;;;;1.50;1.40;;;;;;;15.08;90.53;99119.09;431092;1270;142953;-58
2022/07/31 17:30:19;;;;;;;2.50;2.40;;;;;;;15.09;90.78;99119.34;431661;1270;143788;-59
2022/07/31 17:40:25;;;;;;;2.90;2.70;;;;;;;15.06;90.94;99118.36;431874;1270;142307;-60
2022/07/31 17:50:47;;;;;;;3.10;2.90;;;;;;;15.05;91.26;99117.75;431505;1270;143157;-58
2022/07/31 18:00:58;;;;;;;3.40;3.10;;;;;;;15.07;91.32;99126.80;431807;1270;142286;-59
2022/07/31 18:11:05;;;;;;;2.80;2.60;;;;;;;15.09;91.38;99141.36;431322;1270;147014;-59
2022/07/31 18:21:12;;;;;;;4.40;3.10;;;;;;;15.06;91.27;99148.88;431837;1270;141999;-58
2022/07/31 18:31:18;;;;;;;3.90;2.70;;;;;;;15.04;91.44;99152.42;431693;1270;143306;-59
2022/07/31 18:41:41;;;;;;;3.40;3.10;;;;;;;15.00;91.42;99165.42;430805;1271;142782;-60
2022/07/31 18:51:53;;;;;;;3.10;2.60;;;;;;;14.94;91.68;99177.13;431273;1271;141856;-60
2022/07/31 19:01:59;;;;;;;4.70;2.80;;;;;;;14.89;91.73;99189.52;430438;1271;142432;-59
2022/07/31 19:12:06;;;;;;;6.40;2.80;;;;;;;14.84;91.80;99195.78;431664;1271;194091;-59
2022/07/31 19:22:13;;;;;;;3.50;2.30;;;;;;;14.81;91.50;99199.59;432061;1271;141298;-59
2022/07/31 19:32:19;;;;;;;2.60;2.40;;;;;;;14.77;91.40;99205.72;430339;1271;142358;-61
2022/07/31 19:42:25;;;;;;;2.20;2.00;;;;;;;14.69;91.29;99209.39;430471;1271;142221;-60
2022/07/31 19:52:31;;;;;;;4.50;2.70;;;;;;;14.60;91.31;99206.95;431718;1271;142091;-62
2022/07/31 20:02:37;;;;;;;3.20;2.20;;;;;;;14.53;91.10;99214.77;431686;1271;142821;-63
2022/07/31 20:12:44;;;;;;;3.20;2.10;;;;;;;14.48;90.94;99208.89;431347;1271;142104;-62
2022/07/31 20:22:50;;;;;;;3.10;2.30;;;;;;;14.37;90.65;99206.67;431630;1271;144781;-63
2022/07/31 20:32:56;;;;;;;3.90;2.40;;;;;;;14.29;90.73;99208.71;431597;1270;141784;-61
2022/07/31 20:43:03;;;;;;;2.50;2.30;;;;;;;14.25;90.97;99205.73;431857;1270;141955;-62
2022/07/31 20:53:09;;;;;;;3.00;2.40;;;;;;;14.24;91.11;99197.04;430660;1271;143322;-62
2022/07/31 21:03:15;;;;;;;2.50;2.30;;;;;;;14.19;91.11;99193.41;431350;1271;147797;-58
2022/07/31 21:13:21;;;;;;;3.40;3.10;;;;;;;14.10;91.49;99191.86;435524;1271;142274;-59
2022/07/31 21:23:27;;;;;;;6.60;4.40;;;;;;;14.05;91.67;99194.20;446849;1270;142075;-60
2022/07/31 21:33:34;;;;;;;3.80;3.20;;;;;;;13.98;91.65;99189.73;439255;1270;142699;-59
2022/07/31 21:43:42;;;;;;;6.30;3.20;;;;;;;13.88;91.86;99191.41;446934;1269;142862;-60
2022/07/31 21:54:04;;;;;;;3.30;2.70;;;;;;;13.73;92.12;99190.75;446452;1270;142882;-60
2022/07/31 22:04:10;;;;;;;2.90;2.50;;;;;;;13.59;92.26;99198.58;447728;1270;142871;-60
2022/07/31 22:14:16;;;;;;;4.60;3.30;;;;;;;13.40;92.39;99191.99;442263;1270;142339;-60
2022/07/31 22:24:22;;;;;;;3.00;2.70;;;;;;;13.23;92.67;99190.73;436911;1272;143058;-61
2022/07/31 22:34:30;;;;;;;3.20;2.80;;;;;;;13.09;92.94;99187.98;432719;1271;143370;-59
2022/07/31 22:44:43;;;;;;;3.60;3.20;;;;;;;13.00;93.09;99191.36;432569;1272;143070;-60
2022/07/31 22:54:49;;;;;;;3.30;2.70;;;;;;;12.90;93.18;99196.52;433188;1271;141257;-60
2022/07/31 23:04:55;;;;;;;5.40;3.50;;;;;;;12.79;93.07;99192.80;432328;1273;143038;-61
2022/07/31 23:15:01;;;;;;;16.60;4.20;;;;;;;12.77;93.28;99188.48;431459;1270;143530;-59
2022/07/31 23:25:08;;;;;;;11.00;5.50;;;;;;;12.76;93.78;99201.48;431219;1271;472992;-59
2022/07/31 23:35:14;;;;;;;8.00;7.20;;;;;;;12.72;94.10;99204.83;431708;1270;142681;-60
2022/07/31 23:45:20;;;;;;;6.70;4.80;;;;;;;12.57;94.19;99199.48;431898;1271;142863;-60
2022/07/31 23:55:26;;;;;;;5.00;4.60;;;;;;;12.33;93.87;99203.27;432528;1271;141490;-59
